sensor_id;sensor_type;location;lat;lon;timestamp;pressure;altitude;pressure_sealevel;temperature;humidity
25560;BME280;13450;49.374;8.584;2023-10-31T00:01:02;98945.88;;;11.45;100.00
25560;BME280;13450;49.374;8.584;2023-10-31T00:03:28;98949.47;;;11.38;100.00
25560;BME280;13450;49.374;8.584;2023-10-31T00:05:53;98954.22;;;11.36;100.00
25560;BME280;13450;49.374;8.584;2023-10-31T00:08:20;98959.00;;;11.34;100.00
25560;BME280;13450;49.374;8.584;2023-10-31T00:10:48;98962.75;;;11.33;100.00
25560;BME280;13450;49.374;8.584;2023-10-31T00:13:13;98960.16;;;11.27;100.00
25560;BME280;13450;49.374;8.584;2023-10-31T00:15:41;98958.13;;;11.22;100.00
25560;BME280;13450;49.374;8.584;2023-10-31T00:18:06;98964.75;;;11.19;100.00
25560;BME280;13450;49.374;8.584;2023-10-31T00:20:31;98960.53;;;11.11;100.00
25560;BME280;13450;49.374;8.584;2023-10-31T00:22:59;98967.97;;;11.09;100.00
25560;BME280;13450;49.374;8.584;2023-10-31T00:25:27;98969.44;;;11.05;100.00
25560;BME280;13450;49.374;8.584;2023-10-31T00:27:52;98971.53;;;11.03;100.00
25560;BME280;13450;49.374;8.584;2023-10-31T00:30:18;98973.03;;;10.99;100.00
25560;BME280;13450;49.374;8.584;2023-10-31T00:32:43;98975.34;;;10.95;100.00
25560;BME280;13450;49.374;8.584;2023-10-31T00:35:08;98979.28;;;10.93;100.00
25560;BME280;13450;49.374;8.584;2023-10-31T00:37:33;98981.34;;;10.91;100.00
25560;BME280;13450;49.374;8.584;2023-10-31T00:39:59;98985.06;;;10.90;100.00
25560;BME280;13450;49.374;8.584;2023-10-31T00:42:24;98990.06;;;10.86;100.00
25560;BME280;13450;49.374;8.584;2023-10-31T00:44:49;98988.88;;;10.82;100.00
25560;BME280;13450;49.374;8.584;2023-10-31T00:47:15;98984.94;;;10.84;100.00
25560;BME280;13450;49.374;8.584;2023-10-31T00:49:40;98992.19;;;10.77;100.00
25560;BME280;13450;49.374;8.584;2023-10-31T00:52:06;98986.41;;;10.80;100.00
25560;BME280;13450;49.374;8.584;2023-10-31T00:54:33;99002.09;;;10.77;100.00
25560;BME280;13450;49.374;8.584;2023-10-31T00:56:58;98981.97;;;10.74;100.00
25560;BME280;13450;49.374;8.584;2023-10-31T00:59:24;98974.94;;;10.73;100.00
25560;BME280;13450;49.374;8.584;2023-10-31T01:01:49;98968.72;;;10.79;100.00
25560;BME280;13450;49.374;8.584;2023-10-31T01:04:14;98975.34;;;10.77;100.00
25560;BME280;13450;49.374;8.584;2023-10-31T01:06:41;98985.22;;;10.76;100.00
25560;BME280;13450;49.374;8.584;2023-10-31T01:09:06;98985.34;;;10.63;100.00
25560;BME280;13450;49.374;8.584;2023-10-31T01:11:32;98984.97;;;10.59;100.00
25560;BME280;13450;49.374;8.584;2023-10-31T01:13:57;98986.97;;;10.64;100.00
25560;BME280;13450;49.374;8.584;2023-10-31T01:16:22;98996.03;;;10.63;100.00
25560;BME280;13450;49.374;8.584;2023-10-31T01:18:48;98994.34;;;10.68;100.00
25560;BME280;13450;49.374;8.584;2023-10-31T01:21:13;98993.81;;;10.59;100.00
25560;BME280;13450;49.374;8.584;2023-10-31T01:23:38;98999.06;;;10.48;100.00
25560;BME280;13450;49.374;8.584;2023-10-31T01:26:03;99007.72;;;10.43;100.00
25560;BME280;13450;49.374;8.584;2023-10-31T01:28:29;99004.63;;;10.46;100.00
25560;BME280;13450;49.374;8.584;2023-10-31T01:30:54;99006.28;;;10.47;100.00
25560;BME280;13450;49.374;8.584;2023-10-31T01:33:19;99007.09;;;10.48;100.00
25560;BME280;13450;49.374;8.584;2023-10-31T01:35:45;98995.97;;;10.51;100.00
25560;BME280;13450;49.374;8.584;2023-10-31T01:38:15;98990.81;;;10.49;100.00
25560;BME280;13450;49.374;8.584;2023-10-31T01:40:42;98993.53;;;10.42;100.00
25560;BME280;13450;49.374;8.584;2023-10-31T01:43:08;98995.34;;;10.49;100.00
25560;BME280;13450;49.374;8.584;2023-10-31T01:45:33;98994.97;;;10.45;100.00
25560;BME280;13450;49.374;8.584;2023-10-31T01:47:58;98998.34;;;10.33;100.00
25560;BME280;13450;49.374;8.584;2023-10-31T01:50:24;99000.09;;;10.21;100.00
25560;BME280;13450;49.374;8.584;2023-10-31T01:52:51;98998.47;;;10.20;100.00
25560;BME280;13450;49.374;8.584;2023-10-31T01:55:17;98998.63;;;10.25;100.00
25560;BME280;13450;49.374;8.584;2023-10-31T01:57:44;98996.59;;;10.20;100.00
25560;BME280;13450;49.374;8.584;2023-10-31T02:00:11;98998.47;;;10.20;100.00
25560;BME280;13450;49.374;8.584;2023-10-31T02:02:37;99007.06;;;10.22;100.00
25560;BME280;13450;49.374;8.584;2023-10-31T02:05:08;99005.44;;;10.21;100.00
25560;BME280;13450;49.374;8.584;2023-10-31T02:07:35;99007.50;;;10.19;100.00
25560;BME280;13450;49.374;8.584;2023-10-31T02:10:00;99018.63;;;10.16;100.00
25560;BME280;13450;49.374;8.584;2023-10-31T02:12:33;99018.63;;;10.16;100.00
25560;BME280;13450;49.374;8.584;2023-10-31T02:14:59;99019.44;;;10.16;100.00
25560;BME280;13450;49.374;8.584;2023-10-31T02:17:24;99027.28;;;10.11;100.00
25560;BME280;13450;49.374;8.584;2023-10-31T02:19:50;99033.88;;;10.08;100.00
25560;BME280;13450;49.374;8.584;2023-10-31T02:22:16;99027.34;;;10.04;100.00
25560;BME280;13450;49.374;8.584;2023-10-31T02:24:41;99034.16;;;10.00;100.00
25560;BME280;13450;49.374;8.584;2023-10-31T02:27:06;99038.44;;;10.01;100.00
25560;BME280;13450;49.374;8.584;2023-10-31T02:29:34;99042.13;;;10.07;100.00
25560;BME280;13450;49.374;8.584;2023-10-31T02:31:59;99043.13;;;10.13;100.00
25560;BME280;13450;49.374;8.584;2023-10-31T02:34:24;99044.31;;;10.17;100.00
25560;BME280;13450;49.374;8.584;2023-10-31T02:36:51;99051.63;;;10.28;100.00
25560;BME280;13450;49.374;8.584;2023-10-31T02:39:17;99053.06;;;10.31;100.00
25560;BME280;13450;49.374;8.584;2023-10-31T02:41:42;99061.31;;;10.29;100.00
25560;BME280;13450;49.374;8.584;2023-10-31T02:44:08;99062.50;;;10.33;100.00
25560;BME280;13450;49.374;8.584;2023-10-31T02:46:39;99070.53;;;10.33;100.00
25560;BME280;13450;49.374;8.584;2023-10-31T02:49:04;99066.59;;;10.36;100.00
25560;BME280;13450;49.374;8.584;2023-10-31T02:51:29;99062.94;;;10.30;100.00
25560;BME280;13450;49.374;8.584;2023-10-31T02:53:55;99062.94;;;10.30;100.00
25560;BME280;13450;49.374;8.584;2023-10-31T02:56:20;99063.38;;;10.27;100.00
25560;BME280;13450;49.374;8.584;2023-10-31T02:58:48;99062.63;;;10.20;100.00
25560;BME280;13450;49.374;8.584;2023-10-31T03:01:13;99068.81;;;10.14;100.00
25560;BME280;13450;49.374;8.584;2023-10-31T03:03:41;99082.00;;;10.08;100.00
25560;BME280;13450;49.374;8.584;2023-10-31T03:06:06;99074.63;;;10.04;100.00
25560;BME280;13450;49.374;8.584;2023-10-31T03:08:31;99074.69;;;9.97;100.00
25560;BME280;13450;49.374;8.584;2023-10-31T03:10:57;99072.00;;;9.97;100.00
25560;BME280;13450;49.374;8.584;2023-10-31T03:13:22;99082.50;;;9.92;100.00
25560;BME280;13450;49.374;8.584;2023-10-31T03:15:48;99069.59;;;9.89;100.00
25560;BME280;13450;49.374;8.584;2023-10-31T03:18:14;99076.38;;;9.85;100.00
25560;BME280;13450;49.374;8.584;2023-10-31T03:20:45;99075.16;;;9.80;100.00
25560;BME280;13450;49.374;8.584;2023-10-31T03:23:11;99079.50;;;9.75;100.00
25560;BME280;13450;49.374;8.584;2023-10-31T03:25:36;99086.31;;;9.71;100.00
25560;BME280;13450;49.374;8.584;2023-10-31T03:28:03;99083.84;;;9.69;100.00
25560;BME280;13450;49.374;8.584;2023-10-31T03:30:28;99097.00;;;9.64;100.00
25560;BME280;13450;49.374;8.584;2023-10-31T03:32:56;99089.63;;;9.66;100.00
25560;BME280;13450;49.374;8.584;2023-10-31T03:35:21;99089.84;;;9.64;100.00
25560;BME280;13450;49.374;8.584;2023-10-31T03:37:46;99106.91;;;9.63;100.00
25560;BME280;13450;49.374;8.584;2023-10-31T03:40:12;99106.91;;;9.63;100.00
25560;BME280;13450;49.374;8.584;2023-10-31T03:42:37;99109.16;;;9.60;100.00
25560;BME280;13450;49.374;8.584;2023-10-31T03:45:02;99106.47;;;9.60;100.00
25560;BME280;13450;49.374;8.584;2023-10-31T03:47:28;99117.38;;;9.58;100.00
25560;BME280;13450;49.374;8.584;2023-10-31T03:49:53;99116.34;;;9.59;100.00
25560;BME280;13450;49.374;8.584;2023-10-31T03:52:21;99113.44;;;9.61;100.00
25560;BME280;13450;49.374;8.584;2023-10-31T03:54:46;99113.03;;;9.64;100.00
25560;BME280;13450;49.374;8.584;2023-10-31T03:57:13;99121.22;;;9.69;100.00
25560;BME280;13450;49.374;8.584;2023-10-31T03:59:39;99114.88;;;9.70;100.00
25560;BME280;13450;49.374;8.584;2023-10-31T04:02:04;99125.75;;;9.75;100.00
25560;BME280;13450;49.374;8.584;2023-10-31T04:04:32;99125.31;;;9.78;100.00
25560;BME280;13450;49.374;8.584;2023-10-31T04:06:57;99126.94;;;9.86;100.00
25560;BME280;13450;49.374;8.584;2023-10-31T04:09:22;99137.38;;;9.88;100.00
25560;BME280;13450;49.374;8.584;2023-10-31T04:11:47;99141.72;;;9.89;100.00
25560;BME280;13450;49.374;8.584;2023-10-31T04:14:13;99145.00;;;9.91;100.00
25560;BME280;13450;49.374;8.584;2023-10-31T04:16:39;99145.38;;;9.94;100.00
25560;BME280;13450;49.374;8.584;2023-10-31T04:19:10;99142.50;;;9.96;100.00
25560;BME280;13450;49.374;8.584;2023-10-31T04:21:35;99137.78;;;9.98;100.00
25560;BME280;13450;49.374;8.584;2023-10-31T04:24:04;99152.19;;;9.97;100.00
25560;BME280;13450;49.374;8.584;2023-10-31T04:26:32;99156.47;;;9.98;100.00
25560;BME280;13450;49.374;8.584;2023-10-31T04:28:57;99137.56;;;10.00;100.00
25560;BME280;13450;49.374;8.584;2023-10-31T04:31:22;99138.16;;;10.02;100.00
25560;BME280;13450;49.374;8.584;2023-10-31T04:33:47;99160.38;;;10.02;100.00
25560;BME280;13450;49.374;8.584;2023-10-31T04:36:13;99158.50;;;10.03;100.00
25560;BME280;13450;49.374;8.584;2023-10-31T04:38:38;99153.16;;;10.03;100.00
25560;BME280;13450;49.374;8.584;2023-10-31T04:41:03;99144.94;;;10.04;100.00
25560;BME280;13450;49.374;8.584;2023-10-31T04:43:29;99152.94;;;10.04;100.00
25560;BME280;13450;49.374;8.584;2023-10-31T04:45:54;99147.38;;;10.06;100.00
25560;BME280;13450;49.374;8.584;2023-10-31T04:48:19;99152.94;;;10.04;100.00
25560;BME280;13450;49.374;8.584;2023-10-31T04:50:45;99151.09;;;10.05;100.00
25560;BME280;13450;49.374;8.584;2023-10-31T04:53:10;99155.63;;;10.04;100.00
25560;BME280;13450;49.374;8.584;2023-10-31T04:55:35;99153.97;;;10.03;100.00
25560;BME280;13450;49.374;8.584;2023-10-31T04:58:01;99137.94;;;10.03;100.00
25560;BME280;13450;49.374;8.584;2023-10-31T05:00:26;99138.16;;;10.02;100.00
25560;BME280;13450;49.374;8.584;2023-10-31T05:02:52;99149.88;;;10.01;100.00
25560;BME280;13450;49.374;8.584;2023-10-31T05:05:19;99147.84;;;9.96;100.00
25560;BME280;13450;49.374;8.584;2023-10-31T05:07:47;99150.50;;;9.96;100.00
25560;BME280;13450;49.374;8.584;2023-10-31T05:10:12;99154.41;;;10.00;100.00
25560;BME280;13450;49.374;8.584;2023-10-31T05:12:38;99138.78;;;10.04;100.00
25560;BME280;13450;49.374;8.584;2023-10-31T05:15:03;99140.84;;;10.02;100.00
25560;BME280;13450;49.374;8.584;2023-10-31T05:17:29;99157.06;;;10.00;100.00
25560;BME280;13450;49.374;8.584;2023-10-31T05:19:55;99158.53;;;9.96;100.00
25560;BME280;13450;49.374;8.584;2023-10-31T05:22:20;99160.78;;;9.99;100.00
25560;BME280;13450;49.374;8.584;2023-10-31T05:24:50;99158.13;;;9.99;100.00
25560;BME280;13450;49.374;8.584;2023-10-31T05:27:16;99168.81;;;9.99;100.00
25560;BME280;13450;49.374;8.584;2023-10-31T05:29:41;99164.66;;;10.03;100.00
25560;BME280;13450;49.374;8.584;2023-10-31T05:32:06;99162.63;;;9.99;100.00
25560;BME280;13450;49.374;8.584;2023-10-31T05:34:31;99172.28;;;10.06;100.00
25560;BME280;13450;49.374;8.584;2023-10-31T05:36:57;99172.88;;;10.08;100.00
25560;BME280;13450;49.374;8.584;2023-10-31T05:39:22;99180.28;;;10.06;100.00
25560;BME280;13450;49.374;8.584;2023-10-31T05:41:47;99175.78;;;10.00;100.00
25560;BME280;13450;49.374;8.584;2023-10-31T05:44:12;99180.72;;;10.03;100.00
25560;BME280;13450;49.374;8.584;2023-10-31T05:46:39;99173.94;;;10.01;100.00
25560;BME280;13450;49.374;8.584;2023-10-31T05:49:07;99191.63;;;9.95;100.00
25560;BME280;13450;49.374;8.584;2023-10-31T05:51:32;99183.44;;;9.90;100.00
25560;BME280;13450;49.374;8.584;2023-10-31T05:54:01;99198.44;;;9.91;100.00
25560;BME280;13450;49.374;8.584;2023-10-31T05:56:29;99199.84;;;9.93;100.00
25560;BME280;13450;49.374;8.584;2023-10-31T05:58:54;99201.94;;;9.91;100.00
25560;BME280;13450;49.374;8.584;2023-10-31T06:01:20;99199.47;;;9.90;100.00
25560;BME280;13450;49.374;8.584;2023-10-31T06:03:47;99219.81;;;9.91;100.00
25560;BME280;13450;49.374;8.584;2023-10-31T06:06:12;99225.78;;;9.93;100.00
25560;BME280;13450;49.374;8.584;2023-10-31T06:08:39;99229.91;;;9.89;100.00
25560;BME280;13450;49.374;8.584;2023-10-31T06:11:04;99232.13;;;9.92;100.00
25560;BME280;13450;49.374;8.584;2023-10-31T06:13:29;99223.09;;;9.93;100.00
25560;BME280;13450;49.374;8.584;2023-10-31T06:15:57;99238.50;;;9.91;100.00
25560;BME280;13450;49.374;8.584;2023-10-31T06:18:23;99239.53;;;9.90;100.00
25560;BME280;13450;49.374;8.584;2023-10-31T06:20:48;99244.47;;;9.93;100.00
25560;BME280;13450;49.374;8.584;2023-10-31T06:23:14;99243.66;;;9.92;100.00
25560;BME280;13450;49.374;8.584;2023-10-31T06:25:39;99243.66;;;9.92;100.00
25560;BME280;13450;49.374;8.584;2023-10-31T06:28:04;99253.50;;;9.92;100.00
25560;BME280;13450;49.374;8.584;2023-10-31T06:30:30;99260.50;;;9.93;100.00
25560;BME280;13450;49.374;8.584;2023-10-31T06:32:58;99261.53;;;9.92;100.00
25560;BME280;13450;49.374;8.584;2023-10-31T06:35:23;99268.75;;;9.85;100.00
25560;BME280;13450;49.374;8.584;2023-10-31T06:37:54;99269.78;;;9.84;100.00
25560;BME280;13450;49.374;8.584;2023-10-31T06:40:21;99265.06;;;9.79;100.00
25560;BME280;13450;49.374;8.584;2023-10-31T06:42:47;99275.34;;;9.75;100.00
25560;BME280;13450;49.374;8.584;2023-10-31T06:45:12;99268.78;;;9.71;100.00
25560;BME280;13450;49.374;8.584;2023-10-31T06:47:37;99277.38;;;9.80;100.00
25560;BME280;13450;49.374;8.584;2023-10-31T06:50:07;99286.22;;;9.80;100.00
25560;BME280;13450;49.374;8.584;2023-10-31T06:52:34;99279.25;;;9.79;100.00
25560;BME280;13450;49.374;8.584;2023-10-31T06:54:59;99282.13;;;9.78;100.00
25560;BME280;13450;49.374;8.584;2023-10-31T06:57:24;99297.13;;;9.79;100.00
25560;BME280;13450;49.374;8.584;2023-10-31T06:59:49;99293.41;;;9.80;100.00
25560;BME280;13450;49.374;8.584;2023-10-31T07:02:15;99295.47;;;9.85;100.00
25560;BME280;13450;49.374;8.584;2023-10-31T07:04:40;99306.16;;;9.85;100.00
25560;BME280;13450;49.374;8.584;2023-10-31T07:07:06;99307.59;;;9.87;100.00
25560;BME280;13450;49.374;8.584;2023-10-31T07:09:31;99312.09;;;9.87;100.00
25560;BME280;13450;49.374;8.584;2023-10-31T07:11:56;99311.28;;;9.86;100.00
25560;BME280;13450;49.374;8.584;2023-10-31T07:14:21;99311.28;;;9.93;100.00
25560;BME280;13450;49.374;8.584;2023-10-31T07:16:47;99312.28;;;9.92;100.00
25560;BME280;13450;49.374;8.584;2023-10-31T07:19:13;99323.41;;;9.96;100.00
25560;BME280;13450;49.374;8.584;2023-10-31T07:21:41;99313.53;;;9.96;100.00
25560;BME280;13450;49.374;8.584;2023-10-31T07:24:07;99318.66;;;9.98;100.00
25560;BME280;13450;49.374;8.584;2023-10-31T07:26:34;99329.16;;;9.99;100.00
25560;BME280;13450;49.374;8.584;2023-10-31T07:28:59;99328.53;;;10.04;100.00
25560;BME280;13450;49.374;8.584;2023-10-31T07:31:25;99336.13;;;10.07;100.00
25560;BME280;13450;49.374;8.584;2023-10-31T07:33:50;99338.19;;;10.12;100.00
25560;BME280;13450;49.374;8.584;2023-10-31T07:36:15;99342.47;;;10.13;100.00
25560;BME280;13450;49.374;8.584;2023-10-31T07:38:41;99345.16;;;10.13;100.00
25560;BME280;13450;49.374;8.584;2023-10-31T07:41:10;99352.97;;;10.21;100.00
25560;BME280;13450;49.374;8.584;2023-10-31T07:43:36;99343.50;;;10.25;100.00
25560;BME280;13450;49.374;8.584;2023-10-31T07:46:01;99351.50;;;10.25;100.00
25560;BME280;13450;49.374;8.584;2023-10-31T07:48:26;99360.34;;;10.26;100.00
25560;BME280;13450;49.374;8.584;2023-10-31T07:50:54;99352.09;;;10.27;100.00
25560;BME280;13450;49.374;8.584;2023-10-31T07:53:22;99350.84;;;10.37;100.00
25560;BME280;13450;49.374;8.584;2023-10-31T07:55:48;99347.56;;;10.41;100.00
25560;BME280;13450;49.374;8.584;2023-10-31T07:58:14;99353.72;;;10.49;100.00
25560;BME280;13450;49.374;8.584;2023-10-31T08:00:40;99359.03;;;10.55;100.00
25560;BME280;13450;49.374;8.584;2023-10-31T08:03:06;99363.16;;;10.65;100.00
25560;BME280;13450;49.374;8.584;2023-10-31T08:05:31;99368.50;;;10.65;100.00
25560;BME280;13450;49.374;8.584;2023-10-31T08:07:59;99381.19;;;10.76;100.00
25560;BME280;13450;49.374;8.584;2023-10-31T08:10:24;99365.94;;;10.83;100.00
25560;BME280;13450;49.374;8.584;2023-10-31T08:12:49;99373.91;;;10.97;100.00
25560;BME280;13450;49.374;8.584;2023-10-31T08:15:15;99377.38;;;11.04;100.00
25560;BME280;13450;49.374;8.584;2023-10-31T08:17:41;99381.00;;;11.17;100.00
25560;BME280;13450;49.374;8.584;2023-10-31T08:20:08;99376.53;;;11.10;100.00
25560;BME280;13450;49.374;8.584;2023-10-31T08:22:33;99380.00;;;11.11;100.00
25560;BME280;13450;49.374;8.584;2023-10-31T08:24:58;99381.47;;;11.07;100.00
25560;BME280;13450;49.374;8.584;2023-10-31T08:27:24;99386.66;;;11.02;100.00
25560;BME280;13450;49.374;8.584;2023-10-31T08:29:49;99390.97;;;11.03;100.00
25560;BME280;13450;49.374;8.584;2023-10-31T08:32:14;99384.81;;;11.02;100.00
25560;BME280;13450;49.374;8.584;2023-10-31T08:34:39;99386.81;;;11.07;100.00
25560;BME280;13450;49.374;8.584;2023-10-31T08:37:07;99393.41;;;11.04;100.00
25560;BME280;13450;49.374;8.584;2023-10-31T08:39:35;99398.94;;;11.09;100.00
25560;BME280;13450;49.374;8.584;2023-10-31T08:42:00;99401.22;;;11.12;100.00
25560;BME280;13450;49.374;8.584;2023-10-31T08:44:26;99396.44;;;11.21;100.00
25560;BME280;13450;49.374;8.584;2023-10-31T08:46:56;99412.97;;;11.44;100.00
25560;BME280;13450;49.374;8.584;2023-10-31T08:49:27;99411.25;;;11.56;100.00
25560;BME280;13450;49.374;8.584;2023-10-31T08:51:52;99422.06;;;11.75;100.00
25560;BME280;13450;49.374;8.584;2023-10-31T08:54:17;99418.94;;;11.78;100.00
25560;BME280;13450;49.374;8.584;2023-10-31T08:56:45;99416.91;;;11.99;100.00
25560;BME280;13450;49.374;8.584;2023-10-31T08:59:10;99420.97;;;12.08;100.00
25560;BME280;13450;49.374;8.584;2023-10-31T09:01:35;99422.03;;;12.07;100.00
25560;BME280;13450;49.374;8.584;2023-10-31T09:04:01;99422.03;;;12.07;100.00
25560;BME280;13450;49.374;8.584;2023-10-31T09:06:26;99423.03;;;12.32;100.00
25560;BME280;13450;49.374;8.584;2023-10-31T09:08:51;99427.31;;;12.14;100.00
25560;BME280;13450;49.374;8.584;2023-10-31T09:11:17;99435.03;;;12.29;100.00
25560;BME280;13450;49.374;8.584;2023-10-31T09:13:42;99441.09;;;12.43;100.00
25560;BME280;13450;49.374;8.584;2023-10-31T09:16:09;99433.78;;;12.69;100.00
25560;BME280;13450;49.374;8.584;2023-10-31T09:18:35;99437.00;;;12.78;100.00
25560;BME280;13450;49.374;8.584;2023-10-31T09:21:00;99433.63;;;12.82;100.00
25560;BME280;13450;49.374;8.584;2023-10-31T09:23:26;99433.63;;;12.82;100.00
25560;BME280;13450;49.374;8.584;2023-10-31T09:25:51;99435.94;;;12.98;100.00
25560;BME280;13450;49.374;8.584;2023-10-31T09:28:17;99441.16;;;13.11;100.00
25560;BME280;13450;49.374;8.584;2023-10-31T09:30:45;99432.34;;;13.23;100.00
25560;BME280;13450;49.374;8.584;2023-10-31T09:33:13;99444.72;;;13.24;100.00
25560;BME280;13450;49.374;8.584;2023-10-31T09:35:41;99444.34;;;13.20;100.00
25560;BME280;13450;49.374;8.584;2023-10-31T09:38:06;99439.56;;;13.22;100.00
25560;BME280;13450;49.374;8.584;2023-10-31T09:40:31;99436.03;;;13.40;100.00
25560;BME280;13450;49.374;8.584;2023-10-31T09:42:59;99430.00;;;13.57;100.00
25560;BME280;13450;49.374;8.584;2023-10-31T09:45:24;99429.81;;;13.40;100.00
25560;BME280;13450;49.374;8.584;2023-10-31T09:47:50;99428.47;;;13.49;100.00
25560;BME280;13450;49.374;8.584;2023-10-31T09:50:15;99431.66;;;13.58;100.00
25560;BME280;13450;49.374;8.584;2023-10-31T09:52:40;99446.75;;;13.59;100.00
25560;BME280;13450;49.374;8.584;2023-10-31T09:55:06;99442.81;;;13.43;100.00
25560;BME280;13450;49.374;8.584;2023-10-31T09:57:32;99435.50;;;13.62;100.00
25560;BME280;13450;49.374;8.584;2023-10-31T09:59:58;99445.28;;;13.75;100.00
25560;BME280;13450;49.374;8.584;2023-10-31T10:02:24;99436.66;;;13.97;100.00
25560;BME280;13450;49.374;8.584;2023-10-31T10:04:49;99434.19;;;13.95;100.00
25560;BME280;13450;49.374;8.584;2023-10-31T10:07:16;99442.75;;;14.28;100.00
25560;BME280;13450;49.374;8.584;2023-10-31T10:09:42;99447.19;;;14.34;100.00
25560;BME280;13450;49.374;8.584;2023-10-31T10:12:11;99450.22;;;14.74;100.00
25560;BME280;13450;49.374;8.584;2023-10-31T10:14:37;99450.69;;;14.59;100.00
25560;BME280;13450;49.374;8.584;2023-10-31T10:17:14;99447.16;;;15.52;100.00
25560;BME280;13450;49.374;8.584;2023-10-31T10:19:39;99445.63;;;15.91;100.00
25560;BME280;13450;49.374;8.584;2023-10-31T10:22:04;99444.00;;;16.41;100.00
25560;BME280;13450;49.374;8.584;2023-10-31T10:24:30;99449.22;;;16.48;100.00
25560;BME280;13450;49.374;8.584;2023-10-31T10:26:55;99444.97;;;16.52;100.00
25560;BME280;13450;49.374;8.584;2023-10-31T10:29:20;99444.09;;;16.12;100.00
25560;BME280;13450;49.374;8.584;2023-10-31T10:31:46;99455.94;;;16.28;100.00
25560;BME280;13450;49.374;8.584;2023-10-31T10:34:17;99448.78;;;16.00;100.00
25560;BME280;13450;49.374;8.584;2023-10-31T10:36:46;99448.78;;;16.17;100.00
25560;BME280;13450;49.374;8.584;2023-10-31T10:39:17;99439.41;;;16.42;100.00
25560;BME280;13450;49.374;8.584;2023-10-31T10:41:43;99442.34;;;15.72;100.00
25560;BME280;13450;49.374;8.584;2023-10-31T10:44:10;99448.41;;;15.33;100.00
25560;BME280;13450;49.374;8.584;2023-10-31T10:46:41;99443.56;;;15.64;100.00
25560;BME280;13450;49.374;8.584;2023-10-31T10:49:10;99443.50;;;15.76;100.00
25560;BME280;13450;49.374;8.584;2023-10-31T10:51:52;99434.25;;;15.54;100.00
25560;BME280;13450;49.374;8.584;2023-10-31T10:55:11;99435.81;;;15.21;100.00
25560;BME280;13450;49.374;8.584;2023-10-31T10:57:38;99441.31;;;14.85;100.00
25560;BME280;13450;49.374;8.584;2023-10-31T11:00:10;99439.91;;;14.59;100.00
25560;BME280;13450;49.374;8.584;2023-10-31T11:02:39;99448.94;;;14.29;100.00
25560;BME280;13450;49.374;8.584;2023-10-31T11:05:10;99444.84;;;14.02;100.00
25560;BME280;13450;49.374;8.584;2023-10-31T11:07:40;99432.31;;;13.96;100.00
25560;BME280;13450;49.374;8.584;2023-10-31T11:10:08;99442.59;;;13.87;100.00
25560;BME280;13450;49.374;8.584;2023-10-31T11:12:37;99436.50;;;13.80;100.00
25560;BME280;13450;49.374;8.584;2023-10-31T11:15:06;99449.81;;;13.75;100.00
25560;BME280;13450;49.374;8.584;2023-10-31T11:17:37;99449.44;;;13.59;100.00
25560;BME280;13450;49.374;8.584;2023-10-31T11:20:04;99448.50;;;13.65;100.00
25560;BME280;13450;49.374;8.584;2023-10-31T11:22:40;99455.22;;;13.98;100.00
25560;BME280;13450;49.374;8.584;2023-10-31T11:25:10;99456.41;;;15.27;100.00
25560;BME280;13450;49.374;8.584;2023-10-31T11:27:35;99455.69;;;15.78;100.00
25560;BME280;13450;49.374;8.584;2023-10-31T11:30:05;99458.88;;;15.75;100.00
25560;BME280;13450;49.374;8.584;2023-10-31T11:32:32;99466.38;;;15.73;100.00
25560;BME280;13450;49.374;8.584;2023-10-31T11:34:57;99456.13;;;15.58;100.00
25560;BME280;13450;49.374;8.584;2023-10-31T11:42:36;99448.56;;;16.41;100.00
25560;BME280;13450;49.374;8.584;2023-10-31T11:45:01;99463.63;;;16.54;100.00
25560;BME280;13450;49.374;8.584;2023-10-31T11:47:45;99469.59;;;16.78;100.00
25560;BME280;13450;49.374;8.584;2023-10-31T11:50:10;99468.69;;;17.62;100.00
25560;BME280;13450;49.374;8.584;2023-10-31T11:52:38;99466.63;;;18.07;100.00
25560;BME280;13450;49.374;8.584;2023-10-31T11:55:04;99466.69;;;17.52;100.00
25560;BME280;13450;49.374;8.584;2023-10-31T11:57:30;99477.91;;;16.94;100.00
25560;BME280;13450;49.374;8.584;2023-10-31T11:59:58;99481.16;;;16.96;100.00
25560;BME280;13450;49.374;8.584;2023-10-31T12:02:24;99486.06;;;17.44;100.00
25560;BME280;13450;49.374;8.584;2023-10-31T12:04:50;99483.34;;;18.32;100.00
25560;BME280;13450;49.374;8.584;2023-10-31T12:07:15;99489.31;;;18.01;99.72
25560;BME280;13450;49.374;8.584;2023-10-31T12:09:48;99480.94;;;19.58;91.05
25560;BME280;13450;49.374;8.584;2023-10-31T12:12:16;99482.28;;;19.45;85.98
25560;BME280;13450;49.374;8.584;2023-10-31T12:14:41;99491.41;;;18.64;91.60
25560;BME280;13450;49.374;8.584;2023-10-31T12:17:06;99491.56;;;20.48;77.32
25560;BME280;13450;49.374;8.584;2023-10-31T12:19:33;99493.22;;;21.71;76.83
25560;BME280;13450;49.374;8.584;2023-10-31T12:21:58;99499.66;;;23.67;61.06
25560;BME280;13450;49.374;8.584;2023-10-31T12:24:23;99489.63;;;23.43;59.53
25560;BME280;13450;49.374;8.584;2023-10-31T12:26:49;99495.66;;;24.45;56.01
25560;BME280;13450;49.374;8.584;2023-10-31T12:29:19;99501.25;;;23.29;54.09
25560;BME280;13450;49.374;8.584;2023-10-31T12:31:50;99497.41;;;21.98;59.25
25560;BME280;13450;49.374;8.584;2023-10-31T12:34:18;99504.13;;;21.25;61.96
25560;BME280;13450;49.374;8.584;2023-10-31T12:36:46;99496.81;;;22.36;63.02
25560;BME280;13450;49.374;8.584;2023-10-31T12:39:12;99494.31;;;22.10;60.79
25560;BME280;13450;49.374;8.584;2023-10-31T12:41:39;99493.44;;;23.80;66.20
25560;BME280;13450;49.374;8.584;2023-10-31T12:44:06;99495.50;;;25.11;55.96
25560;BME280;13450;49.374;8.584;2023-10-31T12:46:32;99497.84;;;24.14;49.92
25560;BME280;13450;49.374;8.584;2023-10-31T12:48:57;99500.97;;;24.55;51.23
25560;BME280;13450;49.374;8.584;2023-10-31T12:51:23;99502.94;;;24.35;48.82
25560;BME280;13450;49.374;8.584;2023-10-31T12:53:52;99498.50;;;23.10;56.03